sensor_id;sensor_type;location;lat;lon;timestamp;P1;durP1;ratioP1;P2;durP2;ratioP2
572;SDS011;271;51.114;13.780;2023-09-30T00:02:37;18.70;;;5.20;;
572;SDS011;271;51.114;13.780;2023-09-30T00:05:24;21.73;;;5.10;;
572;SDS011;271;51.114;13.780;2023-09-30T00:08:12;19.17;;;4.93;;
572;SDS011;271;51.114;13.780;2023-09-30T00:11:01;20.10;;;4.60;;
572;SDS011;271;51.114;13.780;2023-09-30T00:13:50;17.70;;;3.60;;
572;SDS011;271;51.114;13.780;2023-09-30T00:16:38;17.53;;;4.30;;
572;SDS011;271;51.114;13.780;2023-09-30T00:19:25;17.80;;;3.80;;
572;SDS011;271;51.114;13.780;2023-09-30T00:22:13;17.90;;;3.80;;
572;SDS011;271;51.114;13.780;2023-09-30T00:25:01;19.33;;;4.07;;
572;SDS011;271;51.114;13.780;2023-09-30T00:27:50;18.67;;;3.57;;
572;SDS011;271;51.114;13.780;2023-09-30T00:30:37;17.57;;;3.10;;
572;SDS011;271;51.114;13.780;2023-09-30T00:33:25;18.03;;;4.17;;
572;SDS011;271;51.114;13.780;2023-09-30T00:36:13;16.60;;;3.00;;
572;SDS011;271;51.114;13.780;2023-09-30T00:39:01;16.90;;;3.10;;
572;SDS011;271;51.114;13.780;2023-09-30T00:41:49;17.93;;;3.23;;
572;SDS011;271;51.114;13.780;2023-09-30T00:44:38;17.63;;;3.13;;
572;SDS011;271;51.114;13.780;2023-09-30T00:47:26;17.70;;;2.87;;
572;SDS011;271;51.114;13.780;2023-09-30T00:50:14;16.37;;;3.13;;
572;SDS011;271;51.114;13.780;2023-09-30T00:53:02;19.53;;;3.40;;
572;SDS011;271;51.114;13.780;2023-09-30T00:55:50;16.73;;;2.80;;
572;SDS011;271;51.114;13.780;2023-09-30T00:58:40;16.20;;;2.50;;
572;SDS011;271;51.114;13.780;2023-09-30T01:01:30;15.80;;;1.80;;
572;SDS011;271;51.114;13.780;2023-09-30T01:04:18;15.03;;;1.23;;
572;SDS011;271;51.114;13.780;2023-09-30T01:07:06;16.47;;;1.63;;
572;SDS011;271;51.114;13.780;2023-09-30T01:09:54;14.77;;;1.17;;
572;SDS011;271;51.114;13.780;2023-09-30T01:12:42;15.43;;;1.20;;
572;SDS011;271;51.114;13.780;2023-09-30T01:15:30;18.07;;;1.30;;
572;SDS011;271;51.114;13.780;2023-09-30T01:18:19;15.70;;;1.30;;
572;SDS011;271;51.114;13.780;2023-09-30T01:21:06;16.20;;;1.50;;
572;SDS011;271;51.114;13.780;2023-09-30T01:23:56;15.77;;;1.40;;
572;SDS011;271;51.114;13.780;2023-09-30T01:26:43;15.37;;;1.60;;
572;SDS011;271;51.114;13.780;2023-09-30T01:29:31;15.60;;;1.60;;
572;SDS011;271;51.114;13.780;2023-09-30T01:32:19;15.77;;;1.10;;
572;SDS011;271;51.114;13.780;2023-09-30T01:35:07;16.90;;;1.60;;
572;SDS011;271;51.114;13.780;2023-09-30T01:37:55;14.77;;;1.33;;
572;SDS011;271;51.114;13.780;2023-09-30T01:40:44;14.47;;;1.10;;
572;SDS011;271;51.114;13.780;2023-09-30T01:43:32;15.17;;;1.30;;
572;SDS011;271;51.114;13.780;2023-09-30T01:46:22;14.90;;;1.07;;
572;SDS011;271;51.114;13.780;2023-09-30T01:49:10;16.30;;;1.70;;
572;SDS011;271;51.114;13.780;2023-09-30T01:51:57;16.00;;;1.30;;
572;SDS011;271;51.114;13.780;2023-09-30T01:54:45;15.20;;;1.37;;
572;SDS011;271;51.114;13.780;2023-09-30T01:57:35;15.50;;;1.70;;
572;SDS011;271;51.114;13.780;2023-09-30T02:00:22;14.93;;;1.50;;
572;SDS011;271;51.114;13.780;2023-09-30T02:03:10;16.90;;;1.73;;
572;SDS011;271;51.114;13.780;2023-09-30T02:05:58;17.23;;;1.50;;
572;SDS011;271;51.114;13.780;2023-09-30T02:08:46;17.20;;;1.47;;
572;SDS011;271;51.114;13.780;2023-09-30T02:11:33;17.70;;;1.80;;
572;SDS011;271;51.114;13.780;2023-09-30T02:14:22;16.60;;;1.70;;
572;SDS011;271;51.114;13.780;2023-09-30T02:17:10;16.53;;;1.73;;
572;SDS011;271;51.114;13.780;2023-09-30T02:19:59;16.77;;;1.97;;
572;SDS011;271;51.114;13.780;2023-09-30T02:22:51;15.90;;;1.70;;
572;SDS011;271;51.114;13.780;2023-09-30T02:25:40;15.30;;;1.60;;
572;SDS011;271;51.114;13.780;2023-09-30T02:28:28;16.93;;;2.27;;
572;SDS011;271;51.114;13.780;2023-09-30T02:31:19;16.53;;;2.83;;
572;SDS011;271;51.114;13.780;2023-09-30T02:34:07;17.30;;;2.13;;
572;SDS011;271;51.114;13.780;2023-09-30T02:36:54;16.37;;;2.10;;
572;SDS011;271;51.114;13.780;2023-09-30T02:39:42;16.50;;;2.30;;
572;SDS011;271;51.114;13.780;2023-09-30T02:42:30;17.80;;;2.37;;
572;SDS011;271;51.114;13.780;2023-09-30T02:45:18;17.83;;;2.10;;
572;SDS011;271;51.114;13.780;2023-09-30T02:48:07;17.60;;;2.20;;
572;SDS011;271;51.114;13.780;2023-09-30T02:50:55;16.37;;;1.87;;
572;SDS011;271;51.114;13.780;2023-09-30T02:53:43;16.20;;;1.90;;
572;SDS011;271;51.114;13.780;2023-09-30T02:56:30;17.37;;;1.80;;
572;SDS011;271;51.114;13.780;2023-09-30T02:59:18;19.37;;;1.93;;
572;SDS011;271;51.114;13.780;2023-09-30T03:02:08;16.90;;;2.03;;
572;SDS011;271;51.114;13.780;2023-09-30T03:04:57;17.10;;;2.03;;
572;SDS011;271;51.114;13.780;2023-09-30T03:07:44;16.90;;;2.60;;
572;SDS011;271;51.114;13.780;2023-09-30T03:10:32;18.53;;;2.00;;
572;SDS011;271;51.114;13.780;2023-09-30T03:13:20;19.93;;;2.40;;
572;SDS011;271;51.114;13.780;2023-09-30T03:16:08;21.63;;;2.67;;
572;SDS011;271;51.114;13.780;2023-09-30T03:18:56;19.00;;;2.60;;
572;SDS011;271;51.114;13.780;2023-09-30T03:21:45;19.03;;;2.10;;
572;SDS011;271;51.114;13.780;2023-09-30T03:24:33;18.67;;;2.13;;
572;SDS011;271;51.114;13.780;2023-09-30T03:27:21;19.50;;;2.53;;
572;SDS011;271;51.114;13.780;2023-09-30T03:30:09;19.03;;;2.73;;
572;SDS011;271;51.114;13.780;2023-09-30T03:32:58;19.40;;;2.23;;
572;SDS011;271;51.114;13.780;2023-09-30T03:35:47;17.93;;;2.30;;
572;SDS011;271;51.114;13.780;2023-09-30T03:38:36;17.50;;;2.57;;
572;SDS011;271;51.114;13.780;2023-09-30T03:41:25;17.87;;;2.90;;
572;SDS011;271;51.114;13.780;2023-09-30T03:44:13;18.90;;;1.93;;
572;SDS011;271;51.114;13.780;2023-09-30T03:47:00;17.60;;;2.80;;
572;SDS011;271;51.114;13.780;2023-09-30T03:49:48;18.97;;;2.87;;
572;SDS011;271;51.114;13.780;2023-09-30T03:52:36;18.33;;;2.57;;
572;SDS011;271;51.114;13.780;2023-09-30T03:55:26;19.03;;;2.37;;
572;SDS011;271;51.114;13.780;2023-09-30T03:58:15;17.90;;;2.57;;
572;SDS011;271;51.114;13.780;2023-09-30T04:01:04;20.33;;;3.00;;
572;SDS011;271;51.114;13.780;2023-09-30T04:03:52;21.90;;;2.87;;
572;SDS011;271;51.114;13.780;2023-09-30T04:06:41;18.13;;;2.70;;
572;SDS011;271;51.114;13.780;2023-09-30T04:09:28;21.93;;;3.40;;
572;SDS011;271;51.114;13.780;2023-09-30T04:12:21;18.70;;;2.53;;
572;SDS011;271;51.114;13.780;2023-09-30T04:15:10;19.87;;;3.10;;
572;SDS011;271;51.114;13.780;2023-09-30T04:17:58;18.90;;;2.07;;
572;SDS011;271;51.114;13.780;2023-09-30T04:20:46;17.63;;;2.33;;
572;SDS011;271;51.114;13.780;2023-09-30T04:23:34;18.70;;;2.40;;
572;SDS011;271;51.114;13.780;2023-09-30T04:26:22;18.50;;;2.50;;
572;SDS011;271;51.114;13.780;2023-09-30T04:29:12;19.07;;;2.70;;
572;SDS011;271;51.114;13.780;2023-09-30T04:32:00;19.23;;;2.77;;
572;SDS011;271;51.114;13.780;2023-09-30T04:34:48;18.63;;;2.50;;
572;SDS011;271;51.114;13.780;2023-09-30T04:37:37;20.50;;;2.40;;
572;SDS011;271;51.114;13.780;2023-09-30T04:40:25;18.10;;;2.30;;
572;SDS011;271;51.114;13.780;2023-09-30T04:43:14;16.97;;;2.50;;
572;SDS011;271;51.114;13.780;2023-09-30T04:46:04;19.73;;;2.93;;
572;SDS011;271;51.114;13.780;2023-09-30T04:48:53;21.87;;;2.40;;
572;SDS011;271;51.114;13.780;2023-09-30T04:51:40;20.30;;;3.03;;
572;SDS011;271;51.114;13.780;2023-09-30T04:54:28;18.53;;;2.50;;
572;SDS011;271;51.114;13.780;2023-09-30T04:57:16;17.87;;;2.13;;
572;SDS011;271;51.114;13.780;2023-09-30T05:00:05;20.87;;;2.80;;
572;SDS011;271;51.114;13.780;2023-09-30T05:02:58;19.47;;;2.83;;
572;SDS011;271;51.114;13.780;2023-09-30T05:05:46;19.17;;;2.70;;
572;SDS011;271;51.114;13.780;2023-09-30T05:08:34;20.73;;;2.50;;
572;SDS011;271;51.114;13.780;2023-09-30T05:11:21;21.80;;;2.60;;
572;SDS011;271;51.114;13.780;2023-09-30T05:14:10;19.80;;;4.20;;
572;SDS011;271;51.114;13.780;2023-09-30T05:16:59;21.80;;;3.83;;
572;SDS011;271;51.114;13.780;2023-09-30T05:19:48;20.73;;;3.10;;
572;SDS011;271;51.114;13.780;2023-09-30T05:22:39;20.00;;;3.20;;
572;SDS011;271;51.114;13.780;2023-09-30T05:25:30;17.13;;;2.70;;
572;SDS011;271;51.114;13.780;2023-09-30T05:28:19;19.50;;;2.87;;
572;SDS011;271;51.114;13.780;2023-09-30T05:31:07;19.40;;;3.20;;
572;SDS011;271;51.114;13.780;2023-09-30T05:33:55;21.53;;;3.30;;
572;SDS011;271;51.114;13.780;2023-09-30T05:36:44;21.70;;;3.80;;
572;SDS011;271;51.114;13.780;2023-09-30T05:39:31;19.77;;;3.07;;
572;SDS011;271;51.114;13.780;2023-09-30T05:42:19;20.00;;;2.93;;
572;SDS011;271;51.114;13.780;2023-09-30T05:45:08;19.13;;;2.63;;
572;SDS011;271;51.114;13.780;2023-09-30T05:47:57;18.50;;;2.40;;
572;SDS011;271;51.114;13.780;2023-09-30T05:50:48;18.70;;;2.60;;
572;SDS011;271;51.114;13.780;2023-09-30T05:53:37;20.90;;;2.97;;
572;SDS011;271;51.114;13.780;2023-09-30T05:56:25;22.80;;;3.40;;
572;SDS011;271;51.114;13.780;2023-09-30T05:59:13;20.83;;;2.87;;
572;SDS011;271;51.114;13.780;2023-09-30T06:02:00;19.17;;;2.93;;
572;SDS011;271;51.114;13.780;2023-09-30T06:04:49;25.70;;;3.07;;
572;SDS011;271;51.114;13.780;2023-09-30T06:07:39;17.97;;;2.43;;
572;SDS011;271;51.114;13.780;2023-09-30T06:10:28;23.53;;;3.23;;
572;SDS011;271;51.114;13.780;2023-09-30T06:13:16;20.53;;;2.93;;
572;SDS011;271;51.114;13.780;2023-09-30T06:16:04;22.20;;;3.17;;
572;SDS011;271;51.114;13.780;2023-09-30T06:18:52;18.20;;;2.30;;
572;SDS011;271;51.114;13.780;2023-09-30T06:21:40;20.10;;;3.47;;
572;SDS011;271;51.114;13.780;2023-09-30T06:24:29;21.33;;;3.27;;
572;SDS011;271;51.114;13.780;2023-09-30T06:27:18;20.20;;;3.17;;
572;SDS011;271;51.114;13.780;2023-09-30T06:30:06;21.50;;;3.20;;
572;SDS011;271;51.114;13.780;2023-09-30T06:32:55;18.73;;;2.73;;
572;SDS011;271;51.114;13.780;2023-09-30T06:35:43;20.10;;;3.37;;
572;SDS011;271;51.114;13.780;2023-09-30T06:38:36;21.13;;;3.30;;
572;SDS011;271;51.114;13.780;2023-09-30T06:41:24;19.53;;;3.37;;
572;SDS011;271;51.114;13.780;2023-09-30T06:44:13;18.20;;;3.20;;
572;SDS011;271;51.114;13.780;2023-09-30T06:47:01;18.07;;;2.70;;
572;SDS011;271;51.114;13.780;2023-09-30T06:49:48;22.57;;;3.57;;
572;SDS011;271;51.114;13.780;2023-09-30T06:52:37;21.77;;;3.23;;
572;SDS011;271;51.114;13.780;2023-09-30T06:55:25;21.27;;;3.57;;
572;SDS011;271;51.114;13.780;2023-09-30T06:58:15;19.13;;;3.33;;
572;SDS011;271;51.114;13.780;2023-09-30T07:01:08;19.70;;;3.00;;
572;SDS011;271;51.114;13.780;2023-09-30T07:03:57;18.20;;;3.00;;
572;SDS011;271;51.114;13.780;2023-09-30T07:06:44;17.23;;;2.20;;
572;SDS011;271;51.114;13.780;2023-09-30T07:09:35;19.90;;;3.40;;
572;SDS011;271;51.114;13.780;2023-09-30T07:12:23;23.13;;;3.20;;
572;SDS011;271;51.114;13.780;2023-09-30T07:15:11;18.63;;;3.60;;
572;SDS011;271;51.114;13.780;2023-09-30T07:18:01;18.60;;;2.57;;
572;SDS011;271;51.114;13.780;2023-09-30T07:20:49;19.37;;;3.13;;
572;SDS011;271;51.114;13.780;2023-09-30T07:23:37;17.83;;;3.10;;
572;SDS011;271;51.114;13.780;2023-09-30T07:26:24;19.53;;;3.43;;
572;SDS011;271;51.114;13.780;2023-09-30T07:29:13;21.80;;;3.50;;
572;SDS011;271;51.114;13.780;2023-09-30T07:32:01;18.07;;;2.87;;
572;SDS011;271;51.114;13.780;2023-09-30T07:34:50;20.77;;;3.80;;
572;SDS011;271;51.114;13.780;2023-09-30T07:37:38;19.67;;;2.70;;
572;SDS011;271;51.114;13.780;2023-09-30T07:40:27;24.73;;;3.40;;
572;SDS011;271;51.114;13.780;2023-09-30T07:43:14;21.37;;;3.33;;
572;SDS011;271;51.114;13.780;2023-09-30T07:46:05;19.20;;;2.77;;
572;SDS011;271;51.114;13.780;2023-09-30T07:48:53;21.27;;;3.23;;
572;SDS011;271;51.114;13.780;2023-09-30T07:51:42;22.57;;;3.30;;
572;SDS011;271;51.114;13.780;2023-09-30T07:54:30;19.83;;;3.37;;
572;SDS011;271;51.114;13.780;2023-09-30T07:57:18;19.97;;;3.50;;
572;SDS011;271;51.114;13.780;2023-09-30T08:00:07;18.60;;;3.13;;
572;SDS011;271;51.114;13.780;2023-09-30T08:03:01;19.20;;;3.23;;
572;SDS011;271;51.114;13.780;2023-09-30T08:05:48;18.37;;;3.00;;
572;SDS011;271;51.114;13.780;2023-09-30T08:08:38;21.50;;;2.87;;
572;SDS011;271;51.114;13.780;2023-09-30T08:11:25;19.20;;;3.20;;
572;SDS011;271;51.114;13.780;2023-09-30T08:14:16;22.60;;;2.53;;
572;SDS011;271;51.114;13.780;2023-09-30T08:17:04;19.23;;;2.53;;
572;SDS011;271;51.114;13.780;2023-09-30T08:19:52;20.47;;;2.90;;
572;SDS011;271;51.114;13.780;2023-09-30T08:22:39;16.50;;;3.73;;
572;SDS011;271;51.114;13.780;2023-09-30T08:25:28;18.70;;;3.13;;
572;SDS011;271;51.114;13.780;2023-09-30T08:28:16;19.67;;;3.40;;
572;SDS011;271;51.114;13.780;2023-09-30T08:31:05;19.33;;;3.03;;
572;SDS011;271;51.114;13.780;2023-09-30T08:33:53;17.93;;;2.73;;
572;SDS011;271;51.114;13.780;2023-09-30T08:36:40;18.57;;;2.47;;
572;SDS011;271;51.114;13.780;2023-09-30T08:39:28;21.00;;;2.83;;
572;SDS011;271;51.114;13.780;2023-09-30T08:42:17;22.33;;;3.27;;
572;SDS011;271;51.114;13.780;2023-09-30T08:45:06;17.37;;;2.23;;
572;SDS011;271;51.114;13.780;2023-09-30T08:47:57;23.97;;;3.93;;
572;SDS011;271;51.114;13.780;2023-09-30T08:50:51;20.40;;;3.07;;
572;SDS011;271;51.114;13.780;2023-09-30T08:53:40;19.93;;;2.77;;
572;SDS011;271;51.114;13.780;2023-09-30T08:56:29;18.50;;;2.87;;
572;SDS011;271;51.114;13.780;2023-09-30T08:59:20;18.80;;;2.40;;
572;SDS011;271;51.114;13.780;2023-09-30T09:02:08;19.50;;;2.93;;
572;SDS011;271;51.114;13.780;2023-09-30T09:04:57;21.10;;;2.90;;
572;SDS011;271;51.114;13.780;2023-09-30T09:07:45;19.17;;;2.80;;
572;SDS011;271;51.114;13.780;2023-09-30T09:10:33;23.57;;;4.17;;
572;SDS011;271;51.114;13.780;2023-09-30T09:13:21;18.20;;;2.50;;
572;SDS011;271;51.114;13.780;2023-09-30T09:16:10;17.33;;;2.57;;
572;SDS011;271;51.114;13.780;2023-09-30T09:18:58;20.03;;;2.20;;
572;SDS011;271;51.114;13.780;2023-09-30T09:21:52;19.50;;;2.63;;
572;SDS011;271;51.114;13.780;2023-09-30T09:24:42;19.80;;;2.30;;
572;SDS011;271;51.114;13.780;2023-09-30T09:27:33;16.73;;;2.33;;
572;SDS011;271;51.114;13.780;2023-09-30T09:30:22;19.63;;;3.10;;
572;SDS011;271;51.114;13.780;2023-09-30T09:33:12;18.63;;;2.80;;
572;SDS011;271;51.114;13.780;2023-09-30T09:35:59;19.20;;;2.53;;
572;SDS011;271;51.114;13.780;2023-09-30T09:38:48;18.80;;;2.80;;
572;SDS011;271;51.114;13.780;2023-09-30T09:41:48;18.77;;;2.57;;
572;SDS011;271;51.114;13.780;2023-09-30T09:44:37;18.83;;;2.87;;
572;SDS011;271;51.114;13.780;2023-09-30T09:47:26;19.83;;;3.20;;
572;SDS011;271;51.114;13.780;2023-09-30T09:50:16;17.57;;;2.73;;
572;SDS011;271;51.114;13.780;2023-09-30T09:53:04;19.10;;;2.57;;
572;SDS011;271;51.114;13.780;2023-09-30T09:55:52;18.10;;;3.00;;
572;SDS011;271;51.114;13.780;2023-09-30T09:58:43;16.67;;;2.40;;
572;SDS011;271;51.114;13.780;2023-09-30T10:01:34;21.27;;;2.80;;
572;SDS011;271;51.114;13.780;2023-09-30T10:04:22;18.10;;;2.93;;
572;SDS011;271;51.114;13.780;2023-09-30T10:07:19;18.13;;;2.80;;
572;SDS011;271;51.114;13.780;2023-09-30T10:10:11;17.17;;;2.40;;
572;SDS011;271;51.114;13.780;2023-09-30T10:13:02;18.37;;;3.00;;
572;SDS011;271;51.114;13.780;2023-09-30T10:15:51;19.63;;;2.67;;
572;SDS011;271;51.114;13.780;2023-09-30T10:18:54;18.77;;;3.70;;
572;SDS011;271;51.114;13.780;2023-09-30T10:28:36;19.30;;;2.43;;
572;SDS011;271;51.114;13.780;2023-09-30T10:31:26;18.77;;;3.13;;
572;SDS011;271;51.114;13.780;2023-09-30T10:34:22;18.50;;;2.40;;
572;SDS011;271;51.114;13.780;2023-09-30T10:37:22;20.27;;;3.13;;
572;SDS011;271;51.114;13.780;2023-09-30T10:40:12;17.37;;;2.43;;
572;SDS011;271;51.114;13.780;2023-09-30T10:43:28;19.10;;;3.83;;
572;SDS011;271;51.114;13.780;2023-09-30T10:46:32;20.17;;;2.30;;
572;SDS011;271;51.114;13.780;2023-09-30T10:49:29;18.73;;;2.60;;
572;SDS011;271;51.114;13.780;2023-09-30T10:52:23;18.97;;;2.70;;
572;SDS011;271;51.114;13.780;2023-09-30T10:55:11;17.33;;;2.20;;
572;SDS011;271;51.114;13.780;2023-09-30T10:58:06;16.30;;;2.17;;
572;SDS011;271;51.114;13.780;2023-09-30T11:00:54;17.60;;;2.63;;
572;SDS011;271;51.114;13.780;2023-09-30T11:03:42;17.00;;;1.93;;
572;SDS011;271;51.114;13.780;2023-09-30T11:06:31;17.03;;;2.67;;
572;SDS011;271;51.114;13.780;2023-09-30T11:09:21;18.53;;;2.27;;
572;SDS011;271;51.114;13.780;2023-09-30T11:12:13;16.47;;;2.10;;
572;SDS011;271;51.114;13.780;2023-09-30T11:15:03;19.03;;;1.83;;
572;SDS011;271;51.114;13.780;2023-09-30T11:18:03;15.27;;;2.33;;
572;SDS011;271;51.114;13.780;2023-09-30T11:21:04;18.10;;;2.37;;
572;SDS011;271;51.114;13.780;2023-09-30T11:23:54;15.90;;;2.07;;
572;SDS011;271;51.114;13.780;2023-09-30T11:26:44;17.20;;;2.33;;
572;SDS011;271;51.114;13.780;2023-09-30T11:29:32;18.53;;;2.23;;
572;SDS011;271;51.114;13.780;2023-09-30T11:32:23;15.37;;;2.30;;
572;SDS011;271;51.114;13.780;2023-09-30T11:35:21;15.97;;;2.47;;
572;SDS011;271;51.114;13.780;2023-09-30T11:38:10;17.77;;;2.20;;
572;SDS011;271;51.114;13.780;2023-09-30T11:41:03;20.87;;;2.50;;
572;SDS011;271;51.114;13.780;2023-09-30T11:44:02;16.90;;;1.90;;
572;SDS011;271;51.114;13.780;2023-09-30T11:46:58;16.97;;;2.20;;
572;SDS011;271;51.114;13.780;2023-09-30T11:49:52;19.90;;;3.00;;
572;SDS011;271;51.114;13.780;2023-09-30T11:52:43;15.70;;;1.97;;
572;SDS011;271;51.114;13.780;2023-09-30T11:55:32;16.10;;;2.03;;
572;SDS011;271;51.114;13.780;2023-09-30T11:58:23;18.33;;;2.10;;
572;SDS011;271;51.114;13.780;2023-09-30T12:01:14;18.80;;;1.93;;
572;SDS011;271;51.114;13.780;2023-09-30T12:04:02;16.77;;;1.70;;
572;SDS011;271;51.114;13.780;2023-09-30T12:06:50;17.50;;;2.33;;
572;SDS011;271;51.114;13.780;2023-09-30T12:09:38;16.40;;;1.83;;
572;SDS011;271;51.114;13.780;2023-09-30T12:12:26;17.90;;;2.70;;
572;SDS011;271;51.114;13.780;2023-09-30T12:15:14;16.20;;;1.90;;
572;SDS011;271;51.114;13.780;2023-09-30T12:18:04;17.30;;;2.17;;
572;SDS011;271;51.114;13.780;2023-09-30T12:20:52;19.03;;;2.23;;
572;SDS011;271;51.114;13.780;2023-09-30T12:23:41;16.17;;;1.70;;
572;SDS011;271;51.114;13.780;2023-09-30T12:26:29;17.13;;;2.20;;
572;SDS011;271;51.114;13.780;2023-09-30T12:29:18;16.30;;;2.10;;
572;SDS011;271;51.114;13.780;2023-09-30T12:32:07;17.23;;;2.00;;
572;SDS011;271;51.114;13.780;2023-09-30T12:34:56;16.50;;;1.83;;
572;SDS011;271;51.114;13.780;2023-09-30T12:37:44;16.90;;;2.40;;
572;SDS011;271;51.114;13.780;2023-09-30T12:40:32;19.40;;;2.77;;
572;SDS011;271;51.114;13.780;2023-09-30T12:43:19;17.00;;;2.00;;
572;SDS011;271;51.114;13.780;2023-09-30T12:46:08;16.27;;;2.10;;
572;SDS011;271;51.114;13.780;2023-09-30T12:48:59;17.37;;;2.30;;
572;SDS011;271;51.114;13.780;2023-09-30T12:51:48;16.20;;;1.40;;
572;SDS011;271;51.114;13.780;2023-09-30T12:54:35;16.50;;;1.60;;
572;SDS011;271;51.114;13.780;2023-09-30T12:57:23;17.93;;;2.10;;
572;SDS011;271;51.114;13.780;2023-09-30T13:00:12;15.67;;;1.60;;
572;SDS011;271;51.114;13.780;2023-09-30T13:03:01;21.10;;;2.37;;
572;SDS011;271;51.114;13.780;2023-09-30T13:05:50;16.93;;;1.83;;
572;SDS011;271;51.114;13.780;2023-09-30T13:08:39;16.63;;;1.70;;
572;SDS011;271;51.114;13.780;2023-09-30T13:11:27;16.00;;;1.67;;
572;SDS011;271;51.114;13.780;2023-09-30T13:14:14;16.83;;;1.67;;
572;SDS011;271;51.114;13.780;2023-09-30T13:17:03;15.87;;;1.47;;
572;SDS011;271;51.114;13.780;2023-09-30T13:19:50;15.20;;;2.03;;
572;SDS011;271;51.114;13.780;2023-09-30T13:22:38;16.60;;;2.23;;
572;SDS011;271;51.114;13.780;2023-09-30T13:25:28;19.23;;;3.10;;
572;SDS011;271;51.114;13.780;2023-09-30T13:28:15;20.97;;;2.13;;
572;SDS011;271;51.114;13.780;2023-09-30T13:31:03;16.53;;;1.70;;
572;SDS011;271;51.114;13.780;2023-09-30T13:33:51;16.90;;;1.50;;
572;SDS011;271;51.114;13.780;2023-09-30T13:36:38;18.00;;;1.77;;
572;SDS011;271;51.114;13.780;2023-09-30T13:39:26;19.33;;;2.33;;
572;SDS011;271;51.114;13.780;2023-09-30T13:42:16;18.10;;;1.83;;
572;SDS011;271;51.114;13.780;2023-09-30T13:45:04;18.37;;;2.80;;
572;SDS011;271;51.114;13.780;2023-09-30T13:47:54;16.97;;;2.10;;
572;SDS011;271;51.114;13.780;2023-09-30T13:50:41;17.20;;;1.80;;
572;SDS011;271;51.114;13.780;2023-09-30T13:53:29;15.50;;;1.80;;
572;SDS011;271;51.114;13.780;2023-09-30T13:56:17;17.10;;;2.00;;
572;SDS011;271;51.114;13.780;2023-09-30T13:59:06;16.70;;;2.50;;
572;SDS011;271;51.114;13.780;2023-09-30T14:01:53;17.27;;;2.33;;
572;SDS011;271;51.114;13.780;2023-09-30T14:04:41;14.93;;;1.63;;
572;SDS011;271;51.114;13.780;2023-09-30T14:07:29;16.00;;;1.40;;
572;SDS011;271;51.114;13.780;2023-09-30T14:10:17;16.20;;;1.53;;
572;SDS011;271;51.114;13.780;2023-09-30T14:13:05;16.23;;;1.73;;
572;SDS011;271;51.114;13.780;2023-09-30T14:15:54;15.43;;;1.60;;
572;SDS011;271;51.114;13.780;2023-09-30T14:18:42;16.60;;;1.90;;
572;SDS011;271;51.114;13.780;2023-09-30T14:21:31;15.77;;;1.80;;
572;SDS011;271;51.114;13.780;2023-09-30T14:24:19;17.50;;;2.17;;
572;SDS011;271;51.114;13.780;2023-09-30T14:27:07;16.80;;;2.13;;
572;SDS011;271;51.114;13.780;2023-09-30T14:29:54;16.57;;;2.00;;
572;SDS011;271;51.114;13.780;2023-09-30T14:32:43;16.03;;;1.63;;
572;SDS011;271;51.114;13.780;2023-09-30T14:35:32;16.83;;;1.80;;
572;SDS011;271;51.114;13.780;2023-09-30T14:38:21;18.50;;;2.00;;
572;SDS011;271;51.114;13.780;2023-09-30T14:41:09;16.67;;;1.70;;
572;SDS011;271;51.114;13.780;2023-09-30T14:43:58;17.17;;;1.93;;
572;SDS011;271;51.114;13.780;2023-09-30T14:46:45;15.70;;;1.77;;
572;SDS011;271;51.114;13.780;2023-09-30T14:49:35;15.70;;;1.73;;
572;SDS011;271;51.114;13.780;2023-09-30T14:52:23;15.90;;;1.50;;
572;SDS011;271;51.114;13.780;2023-09-30T14:55:11;15.63;;;1.67;;
572;SDS011;271;51.114;13.780;2023-09-30T14:57:59;15.10;;;1.50;;
572;SDS011;271;51.114;13.780;2023-09-30T15:00:49;17.97;;;1.90;;
572;SDS011;271;51.114;13.780;2023-09-30T15:03:37;14.70;;;1.60;;
572;SDS011;271;51.114;13.780;2023-09-30T15:06:27;19.90;;;2.07;;
572;SDS011;271;51.114;13.780;2023-09-30T15:09:14;18.40;;;2.13;;
572;SDS011;271;51.114;13.780;2023-09-30T15:12:02;16.60;;;2.13;;
572;SDS011;271;51.114;13.780;2023-09-30T15:18:36;20.43;;;1.93;;
572;SDS011;271;51.114;13.780;2023-09-30T15:32:16;15.00;;;1.70;;
572;SDS011;271;51.114;13.780;2023-09-30T15:35:10;17.67;;;1.80;;
572;SDS011;271;51.114;13.780;2023-09-30T15:38:11;15.83;;;1.70;;
572;SDS011;271;51.114;13.780;2023-09-30T15:41:37;15.37;;;1.60;;
572;SDS011;271;51.114;13.780;2023-09-30T15:44:27;16.73;;;1.73;;
572;SDS011;271;51.114;13.780;2023-09-30T15:47:16;15.10;;;1.57;;
572;SDS011;271;51.114;13.780;2023-09-30T15:50:06;17.37;;;2.37;;
572;SDS011;271;51.114;13.780;2023-09-30T15:52:54;15.40;;;1.50;;
572;SDS011;271;51.114;13.780;2023-09-30T15:55:42;14.87;;;1.40;;
572;SDS011;271;51.114;13.780;2023-09-30T15:58:30;17.43;;;2.03;;
572;SDS011;271;51.114;13.780;2023-09-30T16:01:23;15.70;;;1.73;;
572;SDS011;271;51.114;13.780;2023-09-30T16:04:15;16.10;;;1.77;;
572;SDS011;271;51.114;13.780;2023-09-30T16:07:04;17.77;;;2.47;;
572;SDS011;271;51.114;13.780;2023-09-30T16:09:52;15.40;;;2.20;;
572;SDS011;271;51.114;13.780;2023-09-30T16:12:40;16.87;;;2.00;;
572;SDS011;271;51.114;13.780;2023-09-30T16:15:28;18.17;;;2.17;;
572;SDS011;271;51.114;13.780;2023-09-30T16:18:18;17.80;;;2.40;;
572;SDS011;271;51.114;13.780;2023-09-30T16:21:05;16.47;;;2.43;;
572;SDS011;271;51.114;13.780;2023-09-30T16:23:53;18.00;;;1.73;;
572;SDS011;271;51.114;13.780;2023-09-30T16:26:41;16.60;;;1.87;;
572;SDS011;271;51.114;13.780;2023-09-30T16:29:29;21.33;;;2.40;;
572;SDS011;271;51.114;13.780;2023-09-30T16:32:16;17.60;;;2.10;;
572;SDS011;271;51.114;13.780;2023-09-30T16:35:06;16.83;;;2.13;;
572;SDS011;271;51.114;13.780;2023-09-30T16:37:55;19.43;;;2.90;;
572;SDS011;271;51.114;13.780;2023-09-30T16:40:45;21.17;;;4.80;;
572;SDS011;271;51.114;13.780;2023-09-30T16:43:33;21.07;;;5.90;;
572;SDS011;271;51.114;13.780;2023-09-30T16:46:22;18.30;;;3.77;;
572;SDS011;271;51.114;13.780;2023-09-30T16:49:10;18.37;;;3.00;;
572;SDS011;271;51.114;13.780;2023-09-30T16:51:59;17.30;;;3.23;;
572;SDS011;271;51.114;13.780;2023-09-30T16:54:47;17.20;;;2.40;;
572;SDS011;271;51.114;13.780;2023-09-30T16:57:35;18.07;;;2.90;;
572;SDS011;271;51.114;13.780;2023-09-30T17:00:23;19.30;;;3.30;;
572;SDS011;271;51.114;13.780;2023-09-30T17:03:12;16.57;;;3.23;;
572;SDS011;271;51.114;13.780;2023-09-30T17:06:00;17.30;;;2.80;;
572;SDS011;271;51.114;13.780;2023-09-30T17:08:50;18.40;;;2.67;;
572;SDS011;271;51.114;13.780;2023-09-30T17:11:38;16.70;;;2.40;;
572;SDS011;271;51.114;13.780;2023-09-30T17:14:26;19.33;;;3.47;;
572;SDS011;271;51.114;13.780;2023-09-30T17:17:15;20.27;;;3.07;;
572;SDS011;271;51.114;13.780;2023-09-30T17:20:04;17.27;;;3.20;;
572;SDS011;271;51.114;13.780;2023-09-30T17:22:56;16.83;;;2.83;;
572;SDS011;271;51.114;13.780;2023-09-30T17:25:45;18.60;;;3.37;;
572;SDS011;271;51.114;13.780;2023-09-30T17:28:34;19.07;;;3.20;;
572;SDS011;271;51.114;13.780;2023-09-30T17:31:21;17.40;;;3.73;;
572;SDS011;271;51.114;13.780;2023-09-30T17:34:10;18.80;;;3.27;;
572;SDS011;271;51.114;13.780;2023-09-30T17:36:58;16.50;;;2.70;;
572;SDS011;271;51.114;13.780;2023-09-30T17:39:47;18.37;;;3.23;;
572;SDS011;271;51.114;13.780;2023-09-30T17:42:36;20.97;;;3.30;;
572;SDS011;271;51.114;13.780;2023-09-30T17:45:23;18.47;;;3.03;;
572;SDS011;271;51.114;13.780;2023-09-30T17:48:12;18.17;;;3.07;;
572;SDS011;271;51.114;13.780;2023-09-30T17:51:02;17.07;;;2.97;;
572;SDS011;271;51.114;13.780;2023-09-30T17:53:52;22.97;;;3.80;;